首页
METAR-TAF:

METAR-TAF

机场 :

马普托国际机场

马普托, 莫桑比克

纬度: 25-55S, 经度: 032-34E, 海拔: 39米

当前天气观测

该预报发布于1小时和10分钟前的23:00 UTC
风速4节,风向东转东南
温度 23°C
湿度 83%
气压 1012 hPa
能见度10公里或以上
1500米以下无云,无积雨云

METAR: FQMA 122300Z 12004KT CAVOK 23/20 Q1012 NOSIG

时间: 02:10 (00:10 UTC)

预报

该预报发布于8小时和10分钟前的16:00 UTC
预报有效从12日的 18点(UTC)到 13日的 24点(UTC)
风速15节,风向东转东南
能见度10公里或以上
少量云层高于2000英尺
成为
从 13日的 06点(UTC)到 13日的 08点(UTC)
风速10节,风向北转西北
成为
从 13日的 12点(UTC)到 13日的 14点(UTC)
风速8节,风向

TAF: FQMA 121600Z 1218/1324 11015KT 9999 FEW020 BECMG 1306/1308 34010KT BECMG 1312/1314 08008KT TX33/1313Z TN21/1303Z

超过4000个机场的气象观测和天气预报(METAR&TAF报告)。

可查询的气象台以黄色和红色小点在地图上表示。

将鼠标移到小点上方,可查看气象台名称。

然后点击查看天气观测和预报。

如需切换地图:点击带黑十字的绿色按钮放大地图;点击带横线的绿色按钮缩小地图;或者点击绿色箭头查看邻近地区的地图。


METAR-TAF: